Relevés horaires Antwerpen / Deurne (Belgique)


Relevés horaires à Antwerpen / Deurne - Samedi 13 Oct. 2018
Heure UTC1 Température [°C] Vent [km/h] Hum. [%] Pres.4 [hPa] Visi. [Km] Nébu. [octa] Préc.5 [mm] Cond.
2m. Res. Ros. Dir.2 Vit. Moy. Raf.3
23:00 15.1 15.1 11.7 SE 3.7 3.7 5.6 80 1012.2(-1.1/3h) 40 0/8 -- --
22:00 14.7 14.7 12.7 SE 3.7 5.6 7.4 88 1012.5(-0.5/3h) 30 0/8 -- --
21:00 15.1 15.1 12.6 SE 3.7 5.6 5.6 85 1012.9(-0.3/3h) 30 5/8 -- --
20:00 16.6 16.6 12.6 SE 1.9 3.7 5.6 77 1013.3(-0.4/3h) 30 5/8 -- --
19:00 17.3 17.3 13.6 SSE 3.7 3.7 5.6 79 1013(-0.7/3h) 30 5/8 -- --
18:00 18.9 18.9 12.6 SE 3.7 11.1 18.5 67 1013.2(-1.0/3h) 30 5/8 0/12h
--
17:00 23.3 23.3 13.3 S 5.6 9.3 14.8 53 1013.6(-1.3/3h) 30 5/8 -- --
16:00 24.7 24.7 13.7 SSE 7.4 11.1 14.8 50 1013.7(-1.9/3h) 30 4/8 -- --
15:00 25.6 25.6 14.8 SSE 9.3 11.1 18.5 51 1014.2(-2.3/3h) 30 4/8 -- --
14:00 25.7 25.7 14.8 S 9.3 11.1 16.7 51 1014.9(-2.6/3h) 30 3/8 -- --
13:00 25.5 25.5 14.9 S 9.3 11.1 14.8 52 1015.6(-2.2/3h) 30 3/8 -- --
12:00 24.8 24.8 14.6 S 9.3 11.1 14.8 53 1016.6(-1.6/3h) 30 3/8 0/6h
--
11:00 23.6 23.6 15.2 SSE 11.1 11.1 14.8 59 1017.5(-0.8/3h) 30 3/8 -- --
10:00 22.2 22.2 15.5 SSE 9.3 9.3 13.0 66 1017.8(-0.3/3h) 30 3/8 -- --
09:00 20.3 20.3 14.8 SSE 7.4 9.3 13.0 71 1018.2(0.0/3h) 30 3/8 -- --
08:00 18.4 18.4 14.5 SSE 5.6 7.4 9.3 78 1018.3(0.0/3h) 30 3/8 -- --
07:00 16.8 16.8 15.8 SSE 5.6 5.6 7.4 94 1018.2(-0.5/3h) 30 4/8 -- --
06:00 16.4 16.4 12.9 SSE 5.6 7.4 11.1 80 1018.2(-0.7/3h) 30 3/8 0/12h
--
05:00 16.5 16.5 12.4 SSE 7.4 7.4 11.1 77 1018.3(-0.8/3h) 30 1/8 -- --
04:00 16.3 16.3 12.5 SE 7.4 7.4 9.3 78 1018.6(0.1/3h) 40 0/8 -- --
03:00 16.8 16.8 13.2 SSE 5.6 5.6 7.4 79 1018.9(0.2/3h) 35 0/8 -- --
02:00 16.5 16.5 13.2 SSE 5.6 5.6 7.4 81 1019(0.6/3h) 40 0/8 -- --
01:00 15.4 15.4 12.1 S 3.7 5.6 7.4 81 1018.7(-0.1/3h) 35 0/8 -- --
00:00 17.8 17.8 13.5 S 5.6 7.4 11.1 76 1018.7(-0.4/3h) 45 0/8 0/6h
0/24h
--

1 Coordinated Universal Time. Actuellement il est 03:00 locale et 02:00 UTC.

2 Le vent souffle depuis la direction indiquée vers la direction oposée.

3 Les rafales max. sont disponible 40 min après l'heure du relevé.

4 Pour les stations d'altitude (plus de 600m) le géopotentiel du niveau le plus proche de la pression obligatoire est indiqué.

5 Les stations disposant d'un diffuseur peuvent indiquer "trace". Cela signifie que des précipitations ont touchés le sol mais que la quantité est inférieure à 0.1 mm.

Récapitulatif de la journée
Température [°C] Vent [km/h] Ensoleillement4 [h] Precipitations totale5 [mm] Pression [Hpa]
Min1 Max.2 Moy.3 Max. Min Max.
13.7 26.0 7.8 18.5 0 h 0 min 0 1012.2 1019.0

1 Température minimale relevée entre 18:00 UTC la veille et 18:00 UTC le jour donné.

2 Température maximale relevée entre 06:00 UTC le jour donné et 06:00 UTC le lendemain.

3 Vent moyen de la journée basé sur les relevés horaires.

4 Ensoleillement en heures relevé entre 06:00 UTC la veille et 06:00 UTC le jour donné.

5 Précipitations totales tombées entre 06:00 UTC la jour donné et 06:00 UTC le lendemain.

Graphiques horaires